Langawirra Airport

YLAN · 澳大利亚

METAR YLAN · Langawirra Airport

23 六月 19:00 LT
14m
使用的METAR站距离机场507 km。
罗盘
风向 的 风向 360° Langawirra Airport 18/36
风: 6 kt, 2 beaufort

6 kt

1 kt
改变
0 ft 1.000 2.000 3.000 4.000 5.000
未检测到零云
METAR YPWR 230930Z AUTO 36006KT 9999 // NCD 10/M01 Q1020 RF00.0/000.0

METAR Langawirra Airport - YLAN

该字段位于澳大利亚中。 该机场位于纬度-31,44096和经度142,13767。 该机场有2条跑道: 18/36 和 16/34. 本场的ICAO机场代码为YLAN。 机场在Melbourne FIR中。

该航空气象观测是针对Woomera Airfield在2024年6月23日 19:00, 当地时间进行的。

机场观察

风向为360°,速度为6 kt。

可见度为10 km 或者更多。

有未检测到零云。 没有观察到天花板。

温度为10 °C,阵风为7 °C。 露点为-1 °C,相对湿度为47%。 海平面上的气压为1020 hPa (QNH)。

白天

今天,太阳从07:00升起,在17:06降落。 这适用于Langawirra Airport,世界夏令时可能有所不同。 当地时间与世界标准时间之间的时差为+9 小时 30 分钟。 夏令时目前正在进行中。

公司介绍

我们没有关于这个机场的公司信息。

体会

到Vliegles.nl去找飞行课程,跳伞和其他飞行体验。 浏览页面,了解Langawirra Airport附近所有可用的活动。 你也可以使用搜索功能来寻找你所在地附近的特定飞行课程、跳伞或其他飞行体验。

跑道

Id 标题 侧风 逆风 侧风 %
18/36 189°-009° 6 kt 16 %
16/34 164°-344° 2 kt 6 kt 28 %

逆风成分最大的方向会被突出显示,并用于横风计算。 这并不一定意味着这个方向在使用。

乌云

- NCD 未检测到零云

温度 & 天气

温度 10 °C
露点 -1 °C
相对湿度 47%
风寒 7 °C
Kp-index 2 (0-9)

白天

日出
07:21 (12:07)
中午
12:25
日落
17:28

小工具

你想在你的网站上有一个关于Langawirra Airport的当前航空天气(METAR)的小部件吗?

显示HTML代码
报告变更